Moreland, Pennsylvania
Current Conditions -  °F | °C
As of 3:54 PM on Monday 24 Nov 2014 (Local Time) from KIPT Reporting Station
Scattered Clouds Scattered Clouds  
Wind Chill: 68°   Ceiling: Unl
Heat Index: 68°   Visibility: 10mi
Dew Point: 51°   Wind: 22mph
Humidity: 55%   Direction: 150°SSE
Pressure: 29.48"   Gusts: 35mph
Location:  41.225°N, 76.7388°W
Report Text: KIPT 242054Z 15019G30KT 10SM SCT035 20/11 A2948 RMK AO2 PK WND 13030/2052 SLP982 T02000106 53008
Loading
Personal Weather Stations






























Interactive Weather Map New forecast layout! Learn more

10-Day Weather Forecast

Advertisements
Track Severe Weather on mobile